Aviation Digital Data Service (ADDS)

Output produced by METARs form (0143 UTC 16 January 2019)
found at http://www.aviationweather.gov/metar/data/
 
DXXX 160100Z 25005KT 9999 FEW012 29/26 Q1011 NOSIG
TAF DXXX 152300Z 1600/1706 26005KT 9999 FEW012 
     BECMG 1608/1610 20010KT 
     PROB30 
     TEMPO 1613/1618 TS BKN014 FEW020CB
       
DXNG 160000Z 06006KT 8000 NSC 24/04 Q1015
TAF DXNG 152300Z 1600/1624 08005KT 8000 NSC